METAR AND TAF INFORMATION
METAR FOR KY31
ADDS - METARS form results

(1053 UTC 20 June 2018)
Data provider http://aviationweather.gov/adds/metars/
 
METAR text: KY31 201035Z AUTO 36003KT 10SM OVC100 13/12 A2995 RMK AO2 T01270119
Conditions at: KY31 (WEST BRANCH , MI, US) observed 1035 UTC 20 June 2018
Temperature: 12.7°C (55°F)
Dewpoint: 11.9°C (53°F) [RH = 95%]
Pressure (altimeter): 29.95 inches Hg (1014.3 mb)
Winds: from the N (360 degrees) at 3 MPH (3 knots; 1.6 m/s)
Visibility: 10 or more miles (16+ km)
Ceiling: 10000 feet AGL
Clouds: overcast cloud deck at 10000 feet AGL
Weather: automated observation with no human augmentation;
there may or may not be significant weather present at this time

METAR text: KY31 201015Z AUTO 02005KT 10SM BKN110 12/11 A2995 RMK AO2 T01170110
Conditions at: KY31 (WEST BRANCH , MI, US) observed 1015 UTC 20 June 2018
Temperature: 11.7°C (53°F)
Dewpoint: 11.0°C (52°F) [RH = 95%]
Pressure (altimeter): 29.95 inches Hg (1014.3 mb)
Winds: from the NNE (20 degrees) at 6 MPH (5 knots; 2.6 m/s)
Visibility: 10 or more miles (16+ km)
Ceiling: 11000 feet AGL
Clouds: broken clouds at 11000 feet AGL
Weather: automated observation with no human augmentation;
there may or may not be significant weather present at this time

METAR text: KY31 200955Z AUTO 02007KT 10SM CLR 12/11 A2995 RMK AO2 T01230110
Conditions at: KY31 (WEST BRANCH , MI, US) observed 0955 UTC 20 June 2018
Temperature: 12.3°C (54°F)
Dewpoint: 11.0°C (52°F) [RH = 92%]
Pressure (altimeter): 29.95 inches Hg (1014.3 mb)
Winds: from the NNE (20 degrees) at 8 MPH (7 knots; 3.6 m/s)
Visibility: 10 or more miles (16+ km)
Ceiling: at least 12,000 feet AGL
Clouds: sky clear below 12,000 feet AGL
Weather: automated observation with no human augmentation;
there may or may not be significant weather present at this time

 AIRPORT MAP

 RUNWAY INFORMATION
Runway 09 Runway length 5000 ft Runway width 100 ft
Runway elevation 881 ft Runway displaced threshold 0 ft Runway heading 89
Runway 27 Runway length 5000 ft Runway width 100 ft
Runway elevation 860 ft Runway displaced threshold 0 ft Runway heading 269

 AIRPORT FREQUENCIES
Type CNTR Name MINNEAPOLI Frequency 118.525 MHZ
Type RDO Name LANSING RD Frequency 122.35 MHZ
Type UNIC Name CTAF/UNICO Frequency 122.8 MHZ

 AIRPORT NEAR NAVIGATION AIDS



Powered by Virtual Airlines Manager [v2.6.2]